sensor_id;sensor_type;location;lat;lon;timestamp;P1;durP1;ratioP1;P2;durP2;ratioP2
29370;SDS011;16357;52.188;7.838;2023-07-20T00:02:04;1.98;;;1.40;;
29370;SDS011;16357;52.188;7.838;2023-07-20T00:04:31;1.88;;;1.33;;
29370;SDS011;16357;52.188;7.838;2023-07-20T00:06:59;3.42;;;1.42;;
29370;SDS011;16357;52.188;7.838;2023-07-20T00:09:27;2.03;;;1.30;;
29370;SDS011;16357;52.188;7.838;2023-07-20T00:11:54;1.80;;;1.15;;
29370;SDS011;16357;52.188;7.838;2023-07-20T00:14:20;2.30;;;1.30;;
29370;SDS011;16357;52.188;7.838;2023-07-20T00:16:47;4.85;;;1.55;;
29370;SDS011;16357;52.188;7.838;2023-07-20T00:19:25;2.58;;;1.10;;
29370;SDS011;16357;52.188;7.838;2023-07-20T00:21:53;1.42;;;1.08;;
29370;SDS011;16357;52.188;7.838;2023-07-20T00:24:23;1.35;;;1.23;;
29370;SDS011;16357;52.188;7.838;2023-07-20T00:26:50;2.65;;;1.15;;
29370;SDS011;16357;52.188;7.838;2023-07-20T00:29:16;1.63;;;1.30;;
29370;SDS011;16357;52.188;7.838;2023-07-20T00:31:43;2.17;;;1.55;;
29370;SDS011;16357;52.188;7.838;2023-07-20T00:34:10;3.30;;;1.30;;
29370;SDS011;16357;52.188;7.838;2023-07-20T00:36:36;2.70;;;1.40;;
29370;SDS011;16357;52.188;7.838;2023-07-20T00:39:03;2.22;;;1.50;;
29370;SDS011;16357;52.188;7.838;2023-07-20T00:41:29;1.63;;;1.33;;
29370;SDS011;16357;52.188;7.838;2023-07-20T00:43:56;2.13;;;1.40;;
29370;SDS011;16357;52.188;7.838;2023-07-20T00:46:23;2.28;;;1.48;;
29370;SDS011;16357;52.188;7.838;2023-07-20T00:48:53;2.08;;;1.50;;
29370;SDS011;16357;52.188;7.838;2023-07-20T00:51:21;2.78;;;1.20;;
29370;SDS011;16357;52.188;7.838;2023-07-20T00:53:49;1.95;;;1.20;;
29370;SDS011;16357;52.188;7.838;2023-07-20T00:56:16;1.52;;;1.42;;
29370;SDS011;16357;52.188;7.838;2023-07-20T00:58:43;1.40;;;1.20;;
29370;SDS011;16357;52.188;7.838;2023-07-20T01:01:09;1.88;;;1.30;;
29370;SDS011;16357;52.188;7.838;2023-07-20T01:03:36;2.50;;;1.70;;
29370;SDS011;16357;52.188;7.838;2023-07-20T01:06:24;2.60;;;1.52;;
29370;SDS011;16357;52.188;7.838;2023-07-20T01:09:14;2.38;;;1.50;;
29370;SDS011;16357;52.188;7.838;2023-07-20T01:11:52;1.58;;;1.30;;
29370;SDS011;16357;52.188;7.838;2023-07-20T01:14:26;2.58;;;1.58;;
29370;SDS011;16357;52.188;7.838;2023-07-20T01:16:52;2.20;;;1.40;;
29370;SDS011;16357;52.188;7.838;2023-07-20T01:19:19;3.00;;;1.55;;
29370;SDS011;16357;52.188;7.838;2023-07-20T01:24:58;2.45;;;1.60;;
29370;SDS011;16357;52.188;7.838;2023-07-20T01:27:59;1.95;;;1.60;;
29370;SDS011;16357;52.188;7.838;2023-07-20T01:30:46;2.00;;;1.40;;
29370;SDS011;16357;52.188;7.838;2023-07-20T01:33:21;2.13;;;1.48;;
29370;SDS011;16357;52.188;7.838;2023-07-20T01:35:54;1.75;;;1.30;;
29370;SDS011;16357;52.188;7.838;2023-07-20T01:38:23;2.42;;;1.42;;
29370;SDS011;16357;52.188;7.838;2023-07-20T01:40:50;3.38;;;1.60;;
29370;SDS011;16357;52.188;7.838;2023-07-20T01:43:18;3.95;;;1.60;;
29370;SDS011;16357;52.188;7.838;2023-07-20T01:45:45;1.77;;;1.35;;
29370;SDS011;16357;52.188;7.838;2023-07-20T01:48:11;2.10;;;1.83;;
29370;SDS011;16357;52.188;7.838;2023-07-20T01:50:38;2.65;;;1.48;;
29370;SDS011;16357;52.188;7.838;2023-07-20T01:53:04;1.98;;;1.75;;
29370;SDS011;16357;52.188;7.838;2023-07-20T01:55:31;2.00;;;1.50;;
29370;SDS011;16357;52.188;7.838;2023-07-20T01:57:57;3.13;;;1.40;;
29370;SDS011;16357;52.188;7.838;2023-07-20T02:00:26;1.75;;;1.48;;
29370;SDS011;16357;52.188;7.838;2023-07-20T02:02:52;2.50;;;1.77;;
29370;SDS011;16357;52.188;7.838;2023-07-20T02:05:19;2.47;;;1.73;;
29370;SDS011;16357;52.188;7.838;2023-07-20T02:07:48;3.35;;;1.60;;
29370;SDS011;16357;52.188;7.838;2023-07-20T02:10:15;3.03;;;1.20;;
29370;SDS011;16357;52.188;7.838;2023-07-20T02:12:42;5.25;;;1.40;;
29370;SDS011;16357;52.188;7.838;2023-07-20T02:15:08;2.67;;;1.20;;
29370;SDS011;16357;52.188;7.838;2023-07-20T02:17:35;1.30;;;1.00;;
29370;SDS011;16357;52.188;7.838;2023-07-20T02:20:02;1.50;;;1.10;;
29370;SDS011;16357;52.188;7.838;2023-07-20T02:22:29;1.70;;;1.20;;
29370;SDS011;16357;52.188;7.838;2023-07-20T02:24:55;2.83;;;1.30;;
29370;SDS011;16357;52.188;7.838;2023-07-20T02:27:22;2.33;;;1.40;;
29370;SDS011;16357;52.188;7.838;2023-07-20T02:29:48;1.40;;;1.20;;
29370;SDS011;16357;52.188;7.838;2023-07-20T02:32:16;2.10;;;1.45;;
29370;SDS011;16357;52.188;7.838;2023-07-20T02:34:43;2.10;;;1.48;;
29370;SDS011;16357;52.188;7.838;2023-07-20T02:37:09;2.40;;;2.20;;
29370;SDS011;16357;52.188;7.838;2023-07-20T02:39:37;2.28;;;2.08;;
29370;SDS011;16357;52.188;7.838;2023-07-20T02:42:04;2.83;;;2.42;;
29370;SDS011;16357;52.188;7.838;2023-07-20T02:44:36;4.97;;;2.60;;
29370;SDS011;16357;52.188;7.838;2023-07-20T02:47:03;3.03;;;2.72;;
29370;SDS011;16357;52.188;7.838;2023-07-20T02:49:30;4.97;;;2.65;;
29370;SDS011;16357;52.188;7.838;2023-07-20T02:52:01;2.60;;;2.40;;
29370;SDS011;16357;52.188;7.838;2023-07-20T02:54:28;2.97;;;2.78;;
29370;SDS011;16357;52.188;7.838;2023-07-20T02:57:05;3.38;;;2.95;;
29370;SDS011;16357;52.188;7.838;2023-07-20T02:59:31;3.97;;;2.97;;
29370;SDS011;16357;52.188;7.838;2023-07-20T03:01:58;3.25;;;2.95;;
29370;SDS011;16357;52.188;7.838;2023-07-20T03:04:27;3.17;;;2.50;;
29370;SDS011;16357;52.188;7.838;2023-07-20T03:06:54;2.80;;;2.42;;
29370;SDS011;16357;52.188;7.838;2023-07-20T03:09:20;2.75;;;2.28;;
29370;SDS011;16357;52.188;7.838;2023-07-20T03:11:49;2.30;;;2.10;;
29370;SDS011;16357;52.188;7.838;2023-07-20T03:14:16;2.85;;;2.00;;
29370;SDS011;16357;52.188;7.838;2023-07-20T03:16:42;3.08;;;1.92;;
29370;SDS011;16357;52.188;7.838;2023-07-20T03:19:09;2.33;;;2.13;;
29370;SDS011;16357;52.188;7.838;2023-07-20T03:21:35;2.13;;;1.92;;
29370;SDS011;16357;52.188;7.838;2023-07-20T03:24:07;2.80;;;1.80;;
29370;SDS011;16357;52.188;7.838;2023-07-20T03:26:42;2.70;;;1.90;;
29370;SDS011;16357;52.188;7.838;2023-07-20T03:29:08;2.47;;;1.92;;
29370;SDS011;16357;52.188;7.838;2023-07-20T03:31:35;2.53;;;1.80;;
29370;SDS011;16357;52.188;7.838;2023-07-20T03:34:01;4.40;;;1.80;;
29370;SDS011;16357;52.188;7.838;2023-07-20T03:36:28;1.80;;;1.58;;
29370;SDS011;16357;52.188;7.838;2023-07-20T03:38:54;2.15;;;1.63;;
29370;SDS011;16357;52.188;7.838;2023-07-20T03:41:21;1.63;;;1.40;;
29370;SDS011;16357;52.188;7.838;2023-07-20T03:43:50;1.55;;;1.35;;
29370;SDS011;16357;52.188;7.838;2023-07-20T03:46:16;1.85;;;1.40;;
29370;SDS011;16357;52.188;7.838;2023-07-20T03:48:43;1.40;;;1.15;;
29370;SDS011;16357;52.188;7.838;2023-07-20T03:51:10;1.77;;;1.27;;
29370;SDS011;16357;52.188;7.838;2023-07-20T03:53:36;2.17;;;1.38;;
29370;SDS011;16357;52.188;7.838;2023-07-20T03:56:03;2.15;;;1.50;;
29370;SDS011;16357;52.188;7.838;2023-07-20T03:58:30;3.05;;;1.30;;
29370;SDS011;16357;52.188;7.838;2023-07-20T04:00:57;2.72;;;1.60;;
29370;SDS011;16357;52.188;7.838;2023-07-20T04:03:27;1.52;;;1.38;;
29370;SDS011;16357;52.188;7.838;2023-07-20T04:05:54;1.80;;;1.50;;
29370;SDS011;16357;52.188;7.838;2023-07-20T04:08:24;2.97;;;1.40;;
29370;SDS011;16357;52.188;7.838;2023-07-20T04:10:53;3.03;;;1.80;;
29370;SDS011;16357;52.188;7.838;2023-07-20T04:13:19;1.52;;;1.20;;
29370;SDS011;16357;52.188;7.838;2023-07-20T04:18:48;2.08;;;1.42;;
29370;SDS011;16357;52.188;7.838;2023-07-20T04:21:17;2.33;;;1.70;;
29370;SDS011;16357;52.188;7.838;2023-07-20T04:23:44;2.85;;;1.50;;
29370;SDS011;16357;52.188;7.838;2023-07-20T04:26:14;3.10;;;1.52;;
29370;SDS011;16357;52.188;7.838;2023-07-20T04:28:43;5.72;;;1.60;;
29370;SDS011;16357;52.188;7.838;2023-07-20T04:31:10;2.40;;;1.40;;
29370;SDS011;16357;52.188;7.838;2023-07-20T04:33:39;2.25;;;1.45;;
29370;SDS011;16357;52.188;7.838;2023-07-20T04:36:06;2.88;;;1.63;;
29370;SDS011;16357;52.188;7.838;2023-07-20T04:38:33;1.45;;;1.20;;
29370;SDS011;16357;52.188;7.838;2023-07-20T04:41:10;2.33;;;1.50;;
29370;SDS011;16357;52.188;7.838;2023-07-20T04:43:44;3.80;;;1.38;;
29370;SDS011;16357;52.188;7.838;2023-07-20T04:46:11;1.58;;;1.40;;
29370;SDS011;16357;52.188;7.838;2023-07-20T04:48:37;2.33;;;1.27;;
29370;SDS011;16357;52.188;7.838;2023-07-20T04:51:04;1.90;;;1.40;;
29370;SDS011;16357;52.188;7.838;2023-07-20T04:53:31;1.13;;;1.00;;
29370;SDS011;16357;52.188;7.838;2023-07-20T04:55:57;1.52;;;1.17;;
29370;SDS011;16357;52.188;7.838;2023-07-20T04:58:24;2.88;;;1.65;;
29370;SDS011;16357;52.188;7.838;2023-07-20T05:00:51;1.55;;;1.45;;
29370;SDS011;16357;52.188;7.838;2023-07-20T05:03:18;4.70;;;1.23;;
29370;SDS011;16357;52.188;7.838;2023-07-20T05:05:44;1.60;;;1.50;;
29370;SDS011;16357;52.188;7.838;2023-07-20T05:08:15;2.63;;;1.63;;
29370;SDS011;16357;52.188;7.838;2023-07-20T05:10:42;1.88;;;1.48;;
29370;SDS011;16357;52.188;7.838;2023-07-20T05:13:08;1.90;;;1.50;;
29370;SDS011;16357;52.188;7.838;2023-07-20T05:15:35;3.33;;;1.35;;
29370;SDS011;16357;52.188;7.838;2023-07-20T05:18:01;1.60;;;1.30;;
29370;SDS011;16357;52.188;7.838;2023-07-20T05:20:28;4.25;;;1.30;;
29370;SDS011;16357;52.188;7.838;2023-07-20T05:22:55;2.47;;;1.30;;
29370;SDS011;16357;52.188;7.838;2023-07-20T05:25:21;1.88;;;1.50;;
29370;SDS011;16357;52.188;7.838;2023-07-20T05:27:49;1.75;;;1.30;;
29370;SDS011;16357;52.188;7.838;2023-07-20T05:30:16;2.28;;;1.40;;
29370;SDS011;16357;52.188;7.838;2023-07-20T05:32:43;1.77;;;1.30;;
29370;SDS011;16357;52.188;7.838;2023-07-20T05:35:11;2.78;;;1.55;;
29370;SDS011;16357;52.188;7.838;2023-07-20T05:37:38;4.25;;;1.50;;
29370;SDS011;16357;52.188;7.838;2023-07-20T05:40:05;2.60;;;1.70;;
29370;SDS011;16357;52.188;7.838;2023-07-20T05:42:34;1.95;;;1.60;;
29370;SDS011;16357;52.188;7.838;2023-07-20T05:45:00;2.13;;;1.70;;
29370;SDS011;16357;52.188;7.838;2023-07-20T05:47:27;1.70;;;1.60;;
29370;SDS011;16357;52.188;7.838;2023-07-20T05:49:53;2.30;;;1.70;;
29370;SDS011;16357;52.188;7.838;2023-07-20T05:52:20;2.05;;;1.88;;
29370;SDS011;16357;52.188;7.838;2023-07-20T05:54:46;4.38;;;2.10;;
29370;SDS011;16357;52.188;7.838;2023-07-20T05:57:13;3.03;;;1.92;;
29370;SDS011;16357;52.188;7.838;2023-07-20T05:59:39;3.15;;;2.30;;
29370;SDS011;16357;52.188;7.838;2023-07-20T06:02:10;2.58;;;1.92;;
29370;SDS011;16357;52.188;7.838;2023-07-20T06:04:38;2.35;;;2.10;;
29370;SDS011;16357;52.188;7.838;2023-07-20T06:07:05;2.67;;;2.47;;
29370;SDS011;16357;52.188;7.838;2023-07-20T06:09:34;4.45;;;2.40;;
29370;SDS011;16357;52.188;7.838;2023-07-20T06:12:08;4.53;;;2.67;;
29370;SDS011;16357;52.188;7.838;2023-07-20T06:14:35;2.80;;;2.53;;
29370;SDS011;16357;52.188;7.838;2023-07-20T06:17:05;2.95;;;2.65;;
29370;SDS011;16357;52.188;7.838;2023-07-20T06:19:31;5.03;;;3.10;;
29370;SDS011;16357;52.188;7.838;2023-07-20T06:21:58;4.35;;;3.28;;
29370;SDS011;16357;52.188;7.838;2023-07-20T06:24:24;5.50;;;4.00;;
29370;SDS011;16357;52.188;7.838;2023-07-20T06:26:51;5.53;;;3.78;;
29370;SDS011;16357;52.188;7.838;2023-07-20T06:29:17;4.50;;;4.10;;
29370;SDS011;16357;52.188;7.838;2023-07-20T06:31:44;5.15;;;4.40;;
29370;SDS011;16357;52.188;7.838;2023-07-20T06:34:10;5.90;;;4.90;;
29370;SDS011;16357;52.188;7.838;2023-07-20T06:36:37;7.07;;;5.85;;
29370;SDS011;16357;52.188;7.838;2023-07-20T06:39:03;6.20;;;5.60;;
29370;SDS011;16357;52.188;7.838;2023-07-20T06:41:33;5.85;;;5.28;;
29370;SDS011;16357;52.188;7.838;2023-07-20T06:44:05;6.95;;;6.25;;
29370;SDS011;16357;52.188;7.838;2023-07-20T06:46:32;6.47;;;5.88;;
29370;SDS011;16357;52.188;7.838;2023-07-20T06:48:59;6.07;;;5.47;;
29370;SDS011;16357;52.188;7.838;2023-07-20T06:51:28;6.97;;;6.15;;
29370;SDS011;16357;52.188;7.838;2023-07-20T06:53:55;7.90;;;6.60;;
29370;SDS011;16357;52.188;7.838;2023-07-20T06:56:21;8.30;;;5.43;;
29370;SDS011;16357;52.188;7.838;2023-07-20T06:58:51;5.60;;;5.00;;
29370;SDS011;16357;52.188;7.838;2023-07-20T07:01:17;6.28;;;5.38;;
29370;SDS011;16357;52.188;7.838;2023-07-20T07:03:45;5.88;;;5.28;;
29370;SDS011;16357;52.188;7.838;2023-07-20T07:06:14;6.60;;;5.35;;
29370;SDS011;16357;52.188;7.838;2023-07-20T07:08:46;4.75;;;4.35;;
29370;SDS011;16357;52.188;7.838;2023-07-20T07:11:27;6.82;;;5.18;;
29370;SDS011;16357;52.188;7.838;2023-07-20T07:13:54;5.63;;;5.13;;
29370;SDS011;16357;52.188;7.838;2023-07-20T07:16:22;6.15;;;5.10;;
29370;SDS011;16357;52.188;7.838;2023-07-20T07:18:50;4.97;;;4.30;;
29370;SDS011;16357;52.188;7.838;2023-07-20T07:21:17;6.35;;;4.30;;
29370;SDS011;16357;52.188;7.838;2023-07-20T07:23:43;4.22;;;3.85;;
29370;SDS011;16357;52.188;7.838;2023-07-20T07:26:11;4.57;;;3.72;;
29370;SDS011;16357;52.188;7.838;2023-07-20T07:28:38;3.63;;;3.33;;
29370;SDS011;16357;52.188;7.838;2023-07-20T07:31:05;3.83;;;2.88;;
29370;SDS011;16357;52.188;7.838;2023-07-20T07:33:32;6.88;;;2.88;;
29370;SDS011;16357;52.188;7.838;2023-07-20T07:35:59;3.70;;;3.15;;
29370;SDS011;16357;52.188;7.838;2023-07-20T07:38:28;3.50;;;3.10;;
29370;SDS011;16357;52.188;7.838;2023-07-20T07:41:14;3.20;;;2.90;;
29370;SDS011;16357;52.188;7.838;2023-07-20T07:43:41;2.97;;;2.78;;
29370;SDS011;16357;52.188;7.838;2023-07-20T07:46:07;3.47;;;3.13;;
29370;SDS011;16357;52.188;7.838;2023-07-20T07:48:34;3.67;;;3.05;;
29370;SDS011;16357;52.188;7.838;2023-07-20T07:51:00;2.28;;;2.08;;
29370;SDS011;16357;52.188;7.838;2023-07-20T07:53:27;2.55;;;2.35;;
29370;SDS011;16357;52.188;7.838;2023-07-20T07:55:54;2.30;;;2.10;;
29370;SDS011;16357;52.188;7.838;2023-07-20T07:58:20;2.50;;;2.30;;
29370;SDS011;16357;52.188;7.838;2023-07-20T08:00:47;3.22;;;2.92;;
29370;SDS011;16357;52.188;7.838;2023-07-20T08:03:14;3.00;;;2.60;;
29370;SDS011;16357;52.188;7.838;2023-07-20T08:05:40;4.75;;;2.88;;
29370;SDS011;16357;52.188;7.838;2023-07-20T08:08:07;3.28;;;2.20;;
29370;SDS011;16357;52.188;7.838;2023-07-20T08:10:35;2.55;;;2.35;;
29370;SDS011;16357;52.188;7.838;2023-07-20T08:13:01;1.83;;;1.73;;
29370;SDS011;16357;52.188;7.838;2023-07-20T08:15:28;2.80;;;2.10;;
29370;SDS011;16357;52.188;7.838;2023-07-20T08:17:55;2.42;;;1.85;;
29370;SDS011;16357;52.188;7.838;2023-07-20T08:20:22;2.97;;;2.05;;
29370;SDS011;16357;52.188;7.838;2023-07-20T08:22:54;2.60;;;2.17;;
29370;SDS011;16357;52.188;7.838;2023-07-20T08:25:21;3.03;;;2.25;;
29370;SDS011;16357;52.188;7.838;2023-07-20T08:27:48;3.08;;;2.30;;
29370;SDS011;16357;52.188;7.838;2023-07-20T08:30:14;3.70;;;1.80;;
29370;SDS011;16357;52.188;7.838;2023-07-20T08:32:41;2.22;;;1.83;;
29370;SDS011;16357;52.188;7.838;2023-07-20T08:35:07;3.03;;;1.70;;
29370;SDS011;16357;52.188;7.838;2023-07-20T08:37:34;1.30;;;1.20;;
29370;SDS011;16357;52.188;7.838;2023-07-20T08:40:01;1.48;;;1.30;;
29370;SDS011;16357;52.188;7.838;2023-07-20T08:42:27;1.45;;;1.30;;
29370;SDS011;16357;52.188;7.838;2023-07-20T08:44:53;3.13;;;1.52;;
29370;SDS011;16357;52.188;7.838;2023-07-20T08:47:21;1.73;;;1.63;;
29370;SDS011;16357;52.188;7.838;2023-07-20T08:49:48;2.08;;;1.40;;
29370;SDS011;16357;52.188;7.838;2023-07-20T08:52:15;2.08;;;1.50;;
29370;SDS011;16357;52.188;7.838;2023-07-20T08:54:42;1.98;;;1.30;;
29370;SDS011;16357;52.188;7.838;2023-07-20T08:57:09;1.50;;;1.38;;
29370;SDS011;16357;52.188;7.838;2023-07-20T08:59:40;1.48;;;1.20;;
29370;SDS011;16357;52.188;7.838;2023-07-20T09:02:07;1.88;;;1.40;;
29370;SDS011;16357;52.188;7.838;2023-07-20T09:04:44;1.42;;;1.33;;
29370;SDS011;16357;52.188;7.838;2023-07-20T09:07:10;3.20;;;1.27;;
29370;SDS011;16357;52.188;7.838;2023-07-20T09:09:40;1.27;;;1.15;;
29370;SDS011;16357;52.188;7.838;2023-07-20T09:12:14;1.05;;;0.93;;
29370;SDS011;16357;52.188;7.838;2023-07-20T09:14:42;1.73;;;1.10;;
29370;SDS011;16357;52.188;7.838;2023-07-20T09:17:13;1.20;;;0.82;;
29370;SDS011;16357;52.188;7.838;2023-07-20T09:19:46;1.20;;;1.10;;
29370;SDS011;16357;52.188;7.838;2023-07-20T09:22:16;1.10;;;0.93;;
29370;SDS011;16357;52.188;7.838;2023-07-20T09:24:44;0.98;;;0.88;;
29370;SDS011;16357;52.188;7.838;2023-07-20T09:27:11;1.35;;;1.10;;
29370;SDS011;16357;52.188;7.838;2023-07-20T09:29:55;1.45;;;0.80;;
29370;SDS011;16357;52.188;7.838;2023-07-20T09:32:22;1.15;;;1.02;;
29370;SDS011;16357;52.188;7.838;2023-07-20T09:34:51;1.67;;;0.95;;
29370;SDS011;16357;52.188;7.838;2023-07-20T09:37:21;1.60;;;0.95;;
29370;SDS011;16357;52.188;7.838;2023-07-20T09:39:51;1.13;;;0.90;;
29370;SDS011;16357;52.188;7.838;2023-07-20T09:42:22;0.60;;;0.60;;
29370;SDS011;16357;52.188;7.838;2023-07-20T09:44:51;1.10;;;0.80;;
29370;SDS011;16357;52.188;7.838;2023-07-20T09:47:22;1.05;;;0.80;;
29370;SDS011;16357;52.188;7.838;2023-07-20T09:49:58;1.40;;;0.77;;
29370;SDS011;16357;52.188;7.838;2023-07-20T09:52:32;1.42;;;0.80;;
29370;SDS011;16357;52.188;7.838;2023-07-20T09:55:03;1.17;;;0.60;;
29370;SDS011;16357;52.188;7.838;2023-07-20T09:57:30;1.13;;;0.60;;
29370;SDS011;16357;52.188;7.838;2023-07-20T09:59:58;1.90;;;0.85;;
29370;SDS011;16357;52.188;7.838;2023-07-20T10:02:45;1.50;;;0.90;;
29370;SDS011;16357;52.188;7.838;2023-07-20T10:05:13;0.73;;;0.68;;
29370;SDS011;16357;52.188;7.838;2023-07-20T10:07:44;1.50;;;0.80;;
29370;SDS011;16357;52.188;7.838;2023-07-20T10:10:13;0.60;;;0.60;;
29370;SDS011;16357;52.188;7.838;2023-07-20T10:12:41;1.67;;;0.65;;
29370;SDS011;16357;52.188;7.838;2023-07-20T10:15:17;0.70;;;0.50;;
29370;SDS011;16357;52.188;7.838;2023-07-20T10:17:57;1.15;;;0.80;;
29370;SDS011;16357;52.188;7.838;2023-07-20T10:20:36;1.17;;;0.50;;
29370;SDS011;16357;52.188;7.838;2023-07-20T10:23:30;1.08;;;0.52;;
29370;SDS011;16357;52.188;7.838;2023-07-20T10:25:57;1.45;;;0.50;;
29370;SDS011;16357;52.188;7.838;2023-07-20T10:28:26;0.40;;;0.40;;
29370;SDS011;16357;52.188;7.838;2023-07-20T10:30:53;1.08;;;0.40;;
29370;SDS011;16357;52.188;7.838;2023-07-20T10:33:20;2.33;;;0.80;;
29370;SDS011;16357;52.188;7.838;2023-07-20T10:35:57;1.95;;;0.50;;
29370;SDS011;16357;52.188;7.838;2023-07-20T10:38:40;1.17;;;0.50;;
29370;SDS011;16357;52.188;7.838;2023-07-20T10:44:02;0.55;;;0.50;;
29370;SDS011;16357;52.188;7.838;2023-07-20T10:49:00;1.58;;;0.80;;
29370;SDS011;16357;52.188;7.838;2023-07-20T10:51:38;0.45;;;0.40;;
29370;SDS011;16357;52.188;7.838;2023-07-20T10:54:07;0.65;;;0.50;;
29370;SDS011;16357;52.188;7.838;2023-07-20T10:56:34;0.75;;;0.50;;
29370;SDS011;16357;52.188;7.838;2023-07-20T10:59:01;1.75;;;0.68;;
29370;SDS011;16357;52.188;7.838;2023-07-20T11:01:43;0.98;;;0.45;;
29370;SDS011;16357;52.188;7.838;2023-07-20T11:04:10;1.25;;;0.40;;
29370;SDS011;16357;52.188;7.838;2023-07-20T11:06:36;0.57;;;0.50;;
29370;SDS011;16357;52.188;7.838;2023-07-20T11:09:08;2.58;;;0.50;;
29370;SDS011;16357;52.188;7.838;2023-07-20T11:11:41;1.45;;;0.63;;
29370;SDS011;16357;52.188;7.838;2023-07-20T11:14:09;0.40;;;0.40;;
29370;SDS011;16357;52.188;7.838;2023-07-20T11:16:38;0.50;;;0.40;;
29370;SDS011;16357;52.188;7.838;2023-07-20T11:19:13;0.55;;;0.40;;
29370;SDS011;16357;52.188;7.838;2023-07-20T11:21:51;1.05;;;0.40;;
29370;SDS011;16357;52.188;7.838;2023-07-20T11:24:28;1.10;;;0.55;;
29370;SDS011;16357;52.188;7.838;2023-07-20T11:26:55;0.85;;;0.65;;
29370;SDS011;16357;52.188;7.838;2023-07-20T11:29:22;0.60;;;0.40;;
29370;SDS011;16357;52.188;7.838;2023-07-20T11:31:58;0.75;;;0.50;;
29370;SDS011;16357;52.188;7.838;2023-07-20T11:34:25;0.40;;;0.35;;
29370;SDS011;16357;52.188;7.838;2023-07-20T11:36:53;0.47;;;0.35;;
29370;SDS011;16357;52.188;7.838;2023-07-20T11:39:23;1.15;;;0.43;;
29370;SDS011;16357;52.188;7.838;2023-07-20T11:41:53;1.17;;;0.47;;
29370;SDS011;16357;52.188;7.838;2023-07-20T11:44:22;0.47;;;0.40;;
29370;SDS011;16357;52.188;7.838;2023-07-20T11:49:55;0.55;;;0.40;;
29370;SDS011;16357;52.188;7.838;2023-07-20T11:52:28;1.10;;;0.50;;
29370;SDS011;16357;52.188;7.838;2023-07-20T11:54:55;0.77;;;0.57;;
29370;SDS011;16357;52.188;7.838;2023-07-20T11:57:22;1.10;;;0.63;;
29370;SDS011;16357;52.188;7.838;2023-07-20T12:02:32;0.50;;;0.43;;
29370;SDS011;16357;52.188;7.838;2023-07-20T12:04:58;0.98;;;0.40;;
29370;SDS011;16357;52.188;7.838;2023-07-20T12:07:26;0.40;;;0.40;;
29370;SDS011;16357;52.188;7.838;2023-07-20T12:10:07;0.93;;;0.60;;
29370;SDS011;16357;52.188;7.838;2023-07-20T12:12:40;0.85;;;0.50;;
29370;SDS011;16357;52.188;7.838;2023-07-20T12:15:14;0.68;;;0.40;;
29370;SDS011;16357;52.188;7.838;2023-07-20T12:17:53;0.90;;;0.50;;
29370;SDS011;16357;52.188;7.838;2023-07-20T12:20:31;1.55;;;0.40;;
29370;SDS011;16357;52.188;7.838;2023-07-20T12:23:01;0.85;;;0.40;;
29370;SDS011;16357;52.188;7.838;2023-07-20T12:28:04;1.13;;;0.70;;
29370;SDS011;16357;52.188;7.838;2023-07-20T12:30:34;0.88;;;0.45;;
29370;SDS011;16357;52.188;7.838;2023-07-20T12:33:02;1.00;;;0.45;;
29370;SDS011;16357;52.188;7.838;2023-07-20T12:35:29;1.35;;;0.50;;
29370;SDS011;16357;52.188;7.838;2023-07-20T12:37:56;0.38;;;0.38;;
29370;SDS011;16357;52.188;7.838;2023-07-20T12:40:23;0.57;;;0.50;;
29370;SDS011;16357;52.188;7.838;2023-07-20T12:42:50;0.40;;;0.40;;
29370;SDS011;16357;52.188;7.838;2023-07-20T12:45:16;1.25;;;0.35;;
29370;SDS011;16357;52.188;7.838;2023-07-20T12:47:43;0.47;;;0.40;;
29370;SDS011;16357;52.188;7.838;2023-07-20T12:50:10;0.30;;;0.30;;
29370;SDS011;16357;52.188;7.838;2023-07-20T12:52:37;0.95;;;0.52;;
29370;SDS011;16357;52.188;7.838;2023-07-20T12:55:05;1.90;;;0.50;;
29370;SDS011;16357;52.188;7.838;2023-07-20T12:57:33;1.27;;;0.60;;
29370;SDS011;16357;52.188;7.838;2023-07-20T13:00:02;1.25;;;0.55;;
29370;SDS011;16357;52.188;7.838;2023-07-20T13:02:31;1.77;;;0.90;;
29370;SDS011;16357;52.188;7.838;2023-07-20T13:04:58;0.95;;;0.60;;
29370;SDS011;16357;52.188;7.838;2023-07-20T13:07:31;3.22;;;0.98;;
29370;SDS011;16357;52.188;7.838;2023-07-20T13:10:05;1.55;;;0.82;;
29370;SDS011;16357;52.188;7.838;2023-07-20T13:12:33;0.70;;;0.63;;
29370;SDS011;16357;52.188;7.838;2023-07-20T13:15:02;1.13;;;0.70;;
29370;SDS011;16357;52.188;7.838;2023-07-20T13:17:32;1.90;;;0.82;;
29370;SDS011;16357;52.188;7.838;2023-07-20T13:20:03;2.20;;;0.90;;
29370;SDS011;16357;52.188;7.838;2023-07-20T13:22:30;1.42;;;0.60;;
29370;SDS011;16357;52.188;7.838;2023-07-20T13:24:57;1.92;;;0.60;;
29370;SDS011;16357;52.188;7.838;2023-07-20T13:27:24;0.82;;;0.50;;
29370;SDS011;16357;52.188;7.838;2023-07-20T13:29:52;1.35;;;0.65;;
29370;SDS011;16357;52.188;7.838;2023-07-20T13:32:19;1.50;;;0.60;;
29370;SDS011;16357;52.188;7.838;2023-07-20T13:34:46;2.38;;;0.70;;
29370;SDS011;16357;52.188;7.838;2023-07-20T13:37:14;0.75;;;0.50;;
29370;SDS011;16357;52.188;7.838;2023-07-20T13:39:42;1.20;;;0.52;;
29370;SDS011;16357;52.188;7.838;2023-07-20T13:42:10;0.63;;;0.45;;
29370;SDS011;16357;52.188;7.838;2023-07-20T13:44:38;0.40;;;0.40;;
29370;SDS011;16357;52.188;7.838;2023-07-20T13:47:04;0.50;;;0.50;;
29370;SDS011;16357;52.188;7.838;2023-07-20T13:49:34;0.70;;;0.43;;
29370;SDS011;16357;52.188;7.838;2023-07-20T13:52:12;0.30;;;0.30;;
29370;SDS011;16357;52.188;7.838;2023-07-20T13:54:41;1.60;;;0.50;;
29370;SDS011;16357;52.188;7.838;2023-07-20T13:57:11;0.35;;;0.30;;
29370;SDS011;16357;52.188;7.838;2023-07-20T13:59:37;0.38;;;0.38;;
29370;SDS011;16357;52.188;7.838;2023-07-20T14:02:04;0.43;;;0.40;;
29370;SDS011;16357;52.188;7.838;2023-07-20T14:04:33;0.40;;;0.40;;
29370;SDS011;16357;52.188;7.838;2023-07-20T14:07:00;0.70;;;0.55;;
29370;SDS011;16357;52.188;7.838;2023-07-20T14:09:27;0.40;;;0.40;;
29370;SDS011;16357;52.188;7.838;2023-07-20T14:11:53;0.43;;;0.43;;
29370;SDS011;16357;52.188;7.838;2023-07-20T14:14:22;0.73;;;0.40;;
29370;SDS011;16357;52.188;7.838;2023-07-20T14:16:49;0.80;;;0.50;;
29370;SDS011;16357;52.188;7.838;2023-07-20T14:19:16;0.82;;;0.63;;
29370;SDS011;16357;52.188;7.838;2023-07-20T14:21:43;0.70;;;0.40;;
29370;SDS011;16357;52.188;7.838;2023-07-20T14:24:10;0.40;;;0.40;;
29370;SDS011;16357;52.188;7.838;2023-07-20T14:26:37;0.90;;;0.43;;
29370;SDS011;16357;52.188;7.838;2023-07-20T14:29:05;0.82;;;0.55;;
29370;SDS011;16357;52.188;7.838;2023-07-20T14:31:31;0.95;;;0.50;;
29370;SDS011;16357;52.188;7.838;2023-07-20T14:33:58;0.43;;;0.40;;
29370;SDS011;16357;52.188;7.838;2023-07-20T14:36:25;0.60;;;0.43;;
29370;SDS011;16357;52.188;7.838;2023-07-20T14:38:52;0.55;;;0.40;;
29370;SDS011;16357;52.188;7.838;2023-07-20T14:41:18;1.27;;;0.40;;
29370;SDS011;16357;52.188;7.838;2023-07-20T14:43:45;0.38;;;0.38;;
29370;SDS011;16357;52.188;7.838;2023-07-20T14:46:12;0.50;;;0.38;;
29370;SDS011;16357;52.188;7.838;2023-07-20T14:48:38;1.10;;;0.43;;
29370;SDS011;16357;52.188;7.838;2023-07-20T14:51:05;0.40;;;0.40;;
29370;SDS011;16357;52.188;7.838;2023-07-20T14:53:31;0.98;;;0.60;;
29370;SDS011;16357;52.188;7.838;2023-07-20T14:56:01;0.73;;;0.50;;
29370;SDS011;16357;52.188;7.838;2023-07-20T14:58:29;2.42;;;0.50;;
29370;SDS011;16357;52.188;7.838;2023-07-20T15:00:59;2.60;;;2.10;;
29370;SDS011;16357;52.188;7.838;2023-07-20T15:03:26;2.45;;;1.30;;
29370;SDS011;16357;52.188;7.838;2023-07-20T15:05:52;0.70;;;0.60;;
29370;SDS011;16357;52.188;7.838;2023-07-20T15:08:19;0.40;;;0.40;;
29370;SDS011;16357;52.188;7.838;2023-07-20T15:10:46;0.52;;;0.45;;
29370;SDS011;16357;52.188;7.838;2023-07-20T15:13:13;0.60;;;0.50;;
29370;SDS011;16357;52.188;7.838;2023-07-20T15:15:39;0.93;;;0.50;;
29370;SDS011;16357;52.188;7.838;2023-07-20T15:18:06;0.80;;;0.40;;